sensor_id;sensor_type;location;lat;lon;timestamp;P1;durP1;ratioP1;P2;durP2;ratioP2
908;SDS011;441;51.192;6.788;2023-04-25T00:00:25;8.97;;;8.67;;
908;SDS011;441;51.192;6.788;2023-04-25T00:02:52;8.50;;;8.30;;
908;SDS011;441;51.192;6.788;2023-04-25T00:05:20;9.30;;;9.00;;
908;SDS011;441;51.192;6.788;2023-04-25T00:07:48;9.20;;;9.00;;
908;SDS011;441;51.192;6.788;2023-04-25T00:10:15;9.20;;;9.00;;
908;SDS011;441;51.192;6.788;2023-04-25T00:12:42;9.70;;;9.40;;
908;SDS011;441;51.192;6.788;2023-04-25T00:15:09;9.40;;;9.20;;
908;SDS011;441;51.192;6.788;2023-04-25T00:17:38;9.47;;;9.27;;
908;SDS011;441;51.192;6.788;2023-04-25T00:20:06;9.67;;;9.27;;
908;SDS011;441;51.192;6.788;2023-04-25T00:22:34;8.87;;;8.67;;
908;SDS011;441;51.192;6.788;2023-04-25T00:25:02;8.90;;;8.70;;
908;SDS011;441;51.192;6.788;2023-04-25T00:27:30;8.90;;;8.60;;
908;SDS011;441;51.192;6.788;2023-04-25T00:29:57;9.10;;;8.80;;
908;SDS011;441;51.192;6.788;2023-04-25T00:32:25;8.60;;;8.40;;
908;SDS011;441;51.192;6.788;2023-04-25T00:34:53;9.40;;;9.10;;
908;SDS011;441;51.192;6.788;2023-04-25T00:37:22;9.17;;;8.93;;
908;SDS011;441;51.192;6.788;2023-04-25T00:39:49;9.60;;;9.40;;
908;SDS011;441;51.192;6.788;2023-04-25T00:42:18;9.33;;;9.13;;
908;SDS011;441;51.192;6.788;2023-04-25T00:44:45;9.30;;;9.00;;
908;SDS011;441;51.192;6.788;2023-04-25T00:47:13;8.80;;;8.57;;
908;SDS011;441;51.192;6.788;2023-04-25T00:49:41;8.90;;;8.70;;
908;SDS011;441;51.192;6.788;2023-04-25T00:52:10;9.40;;;9.20;;
908;SDS011;441;51.192;6.788;2023-04-25T00:54:37;9.17;;;8.77;;
908;SDS011;441;51.192;6.788;2023-04-25T00:57:04;9.07;;;8.87;;
908;SDS011;441;51.192;6.788;2023-04-25T00:59:31;8.60;;;8.37;;
908;SDS011;441;51.192;6.788;2023-04-25T01:01:58;9.20;;;9.00;;
908;SDS011;441;51.192;6.788;2023-04-25T01:04:25;8.97;;;8.67;;
908;SDS011;441;51.192;6.788;2023-04-25T01:06:53;8.90;;;8.67;;
908;SDS011;441;51.192;6.788;2023-04-25T01:09:22;8.50;;;8.30;;
908;SDS011;441;51.192;6.788;2023-04-25T01:11:49;9.67;;;9.17;;
908;SDS011;441;51.192;6.788;2023-04-25T01:14:16;9.30;;;9.10;;
908;SDS011;441;51.192;6.788;2023-04-25T01:16:43;10.07;;;9.73;;
908;SDS011;441;51.192;6.788;2023-04-25T01:19:10;9.00;;;8.80;;
908;SDS011;441;51.192;6.788;2023-04-25T01:21:39;9.83;;;9.33;;
908;SDS011;441;51.192;6.788;2023-04-25T01:24:06;10.03;;;9.53;;
908;SDS011;441;51.192;6.788;2023-04-25T01:26:33;9.23;;;8.83;;
908;SDS011;441;51.192;6.788;2023-04-25T01:29:03;9.20;;;8.90;;
908;SDS011;441;51.192;6.788;2023-04-25T01:31:30;9.63;;;9.33;;
908;SDS011;441;51.192;6.788;2023-04-25T01:33:58;9.80;;;9.50;;
908;SDS011;441;51.192;6.788;2023-04-25T01:36:26;9.10;;;8.87;;
908;SDS011;441;51.192;6.788;2023-04-25T01:38:54;9.10;;;8.90;;
908;SDS011;441;51.192;6.788;2023-04-25T01:41:22;9.27;;;8.77;;
908;SDS011;441;51.192;6.788;2023-04-25T01:43:49;9.30;;;9.00;;
908;SDS011;441;51.192;6.788;2023-04-25T01:46:16;9.03;;;8.70;;
908;SDS011;441;51.192;6.788;2023-04-25T01:48:43;9.10;;;8.90;;
908;SDS011;441;51.192;6.788;2023-04-25T01:51:10;9.60;;;9.30;;
908;SDS011;441;51.192;6.788;2023-04-25T01:53:37;8.93;;;8.63;;
908;SDS011;441;51.192;6.788;2023-04-25T01:56:06;8.90;;;8.70;;
908;SDS011;441;51.192;6.788;2023-04-25T01:58:33;8.40;;;8.20;;
908;SDS011;441;51.192;6.788;2023-04-25T02:01:00;9.03;;;8.73;;
908;SDS011;441;51.192;6.788;2023-04-25T02:03:27;9.37;;;9.07;;
908;SDS011;441;51.192;6.788;2023-04-25T02:05:55;10.20;;;9.50;;
908;SDS011;441;51.192;6.788;2023-04-25T02:08:22;9.40;;;9.10;;
908;SDS011;441;51.192;6.788;2023-04-25T02:10:51;9.50;;;9.20;;
908;SDS011;441;51.192;6.788;2023-04-25T02:13:19;9.10;;;8.80;;
908;SDS011;441;51.192;6.788;2023-04-25T02:15:46;9.10;;;8.90;;
908;SDS011;441;51.192;6.788;2023-04-25T02:18:13;9.10;;;8.90;;
908;SDS011;441;51.192;6.788;2023-04-25T02:20:41;9.27;;;9.07;;
908;SDS011;441;51.192;6.788;2023-04-25T02:23:08;8.90;;;8.60;;
908;SDS011;441;51.192;6.788;2023-04-25T02:25:35;8.93;;;8.73;;
908;SDS011;441;51.192;6.788;2023-04-25T02:28:02;9.10;;;8.90;;
908;SDS011;441;51.192;6.788;2023-04-25T02:30:30;9.00;;;8.70;;
908;SDS011;441;51.192;6.788;2023-04-25T02:32:57;9.00;;;8.70;;
908;SDS011;441;51.192;6.788;2023-04-25T02:35:24;9.77;;;9.50;;
908;SDS011;441;51.192;6.788;2023-04-25T02:37:51;8.87;;;8.67;;
908;SDS011;441;51.192;6.788;2023-04-25T02:40:19;8.93;;;8.73;;
908;SDS011;441;51.192;6.788;2023-04-25T02:42:45;9.80;;;9.40;;
908;SDS011;441;51.192;6.788;2023-04-25T02:45:12;9.00;;;8.70;;
908;SDS011;441;51.192;6.788;2023-04-25T02:47:40;9.63;;;9.10;;
908;SDS011;441;51.192;6.788;2023-04-25T02:50:07;9.27;;;9.00;;
908;SDS011;441;51.192;6.788;2023-04-25T02:52:35;10.20;;;9.90;;
908;SDS011;441;51.192;6.788;2023-04-25T02:55:01;9.13;;;8.93;;
908;SDS011;441;51.192;6.788;2023-04-25T02:57:28;9.03;;;8.73;;
908;SDS011;441;51.192;6.788;2023-04-25T02:59:55;8.73;;;8.53;;
908;SDS011;441;51.192;6.788;2023-04-25T03:02:22;8.17;;;7.97;;
908;SDS011;441;51.192;6.788;2023-04-25T03:04:50;8.70;;;8.50;;
908;SDS011;441;51.192;6.788;2023-04-25T03:07:17;9.50;;;9.10;;
908;SDS011;441;51.192;6.788;2023-04-25T03:09:44;9.20;;;8.97;;
908;SDS011;441;51.192;6.788;2023-04-25T03:12:11;9.50;;;9.10;;
908;SDS011;441;51.192;6.788;2023-04-25T03:14:38;9.07;;;8.77;;
908;SDS011;441;51.192;6.788;2023-04-25T03:17:05;9.10;;;8.80;;
908;SDS011;441;51.192;6.788;2023-04-25T03:19:32;9.60;;;9.40;;
908;SDS011;441;51.192;6.788;2023-04-25T03:22:00;8.90;;;8.70;;
908;SDS011;441;51.192;6.788;2023-04-25T03:24:27;8.60;;;8.40;;
908;SDS011;441;51.192;6.788;2023-04-25T03:26:54;8.83;;;8.63;;
908;SDS011;441;51.192;6.788;2023-04-25T03:29:20;8.83;;;8.60;;
908;SDS011;441;51.192;6.788;2023-04-25T03:31:50;9.83;;;9.53;;
908;SDS011;441;51.192;6.788;2023-04-25T03:34:17;9.57;;;9.27;;
908;SDS011;441;51.192;6.788;2023-04-25T03:36:44;9.00;;;8.80;;
908;SDS011;441;51.192;6.788;2023-04-25T03:39:12;8.50;;;8.30;;
908;SDS011;441;51.192;6.788;2023-04-25T03:41:39;9.63;;;9.43;;
908;SDS011;441;51.192;6.788;2023-04-25T03:44:06;9.67;;;9.17;;
908;SDS011;441;51.192;6.788;2023-04-25T03:46:33;9.30;;;9.10;;
908;SDS011;441;51.192;6.788;2023-04-25T03:49:00;9.40;;;9.10;;
908;SDS011;441;51.192;6.788;2023-04-25T03:51:27;8.33;;;8.13;;
908;SDS011;441;51.192;6.788;2023-04-25T03:53:54;9.97;;;9.57;;
908;SDS011;441;51.192;6.788;2023-04-25T03:56:22;9.60;;;9.30;;
908;SDS011;441;51.192;6.788;2023-04-25T03:58:49;8.97;;;8.67;;
908;SDS011;441;51.192;6.788;2023-04-25T04:01:16;9.10;;;8.90;;
908;SDS011;441;51.192;6.788;2023-04-25T04:03:43;8.70;;;8.50;;
908;SDS011;441;51.192;6.788;2023-04-25T04:06:10;9.30;;;9.00;;
908;SDS011;441;51.192;6.788;2023-04-25T04:08:38;9.77;;;9.57;;
908;SDS011;441;51.192;6.788;2023-04-25T04:11:05;10.07;;;9.87;;
908;SDS011;441;51.192;6.788;2023-04-25T04:13:33;9.17;;;8.97;;
908;SDS011;441;51.192;6.788;2023-04-25T04:16:00;9.93;;;9.63;;
908;SDS011;441;51.192;6.788;2023-04-25T04:18:28;9.80;;;9.60;;
908;SDS011;441;51.192;6.788;2023-04-25T04:20:55;9.67;;;9.37;;
908;SDS011;441;51.192;6.788;2023-04-25T04:23:23;9.40;;;9.20;;
908;SDS011;441;51.192;6.788;2023-04-25T04:25:52;9.73;;;9.53;;
908;SDS011;441;51.192;6.788;2023-04-25T04:28:19;9.87;;;9.40;;
908;SDS011;441;51.192;6.788;2023-04-25T04:30:48;9.37;;;9.17;;
908;SDS011;441;51.192;6.788;2023-04-25T04:33:16;10.00;;;9.60;;
908;SDS011;441;51.192;6.788;2023-04-25T04:35:43;9.93;;;9.73;;
908;SDS011;441;51.192;6.788;2023-04-25T04:38:13;9.50;;;9.30;;
908;SDS011;441;51.192;6.788;2023-04-25T04:40:41;9.00;;;8.80;;
908;SDS011;441;51.192;6.788;2023-04-25T04:43:08;9.57;;;9.37;;
908;SDS011;441;51.192;6.788;2023-04-25T04:45:35;10.00;;;9.60;;
908;SDS011;441;51.192;6.788;2023-04-25T04:48:04;8.93;;;8.53;;
908;SDS011;441;51.192;6.788;2023-04-25T04:50:32;11.73;;;10.97;;
908;SDS011;441;51.192;6.788;2023-04-25T04:52:59;12.37;;;11.40;;
908;SDS011;441;51.192;6.788;2023-04-25T04:55:28;12.90;;;11.80;;
908;SDS011;441;51.192;6.788;2023-04-25T04:57:54;13.43;;;12.00;;
908;SDS011;441;51.192;6.788;2023-04-25T05:00:21;12.10;;;11.00;;
908;SDS011;441;51.192;6.788;2023-04-25T05:02:48;12.03;;;11.03;;
908;SDS011;441;51.192;6.788;2023-04-25T05:05:17;13.20;;;10.80;;
908;SDS011;441;51.192;6.788;2023-04-25T05:07:44;12.77;;;11.70;;
908;SDS011;441;51.192;6.788;2023-04-25T05:10:10;14.13;;;11.27;;
908;SDS011;441;51.192;6.788;2023-04-25T05:12:37;12.33;;;10.73;;
908;SDS011;441;51.192;6.788;2023-04-25T05:15:05;13.43;;;12.10;;
908;SDS011;441;51.192;6.788;2023-04-25T05:17:33;11.87;;;11.07;;
908;SDS011;441;51.192;6.788;2023-04-25T05:19:59;12.70;;;11.63;;
908;SDS011;441;51.192;6.788;2023-04-25T05:22:28;12.37;;;11.50;;
908;SDS011;441;51.192;6.788;2023-04-25T05:24:55;13.37;;;12.60;;
908;SDS011;441;51.192;6.788;2023-04-25T05:27:21;11.63;;;11.03;;
908;SDS011;441;51.192;6.788;2023-04-25T05:29:48;12.60;;;11.73;;
908;SDS011;441;51.192;6.788;2023-04-25T05:32:15;13.20;;;12.10;;
908;SDS011;441;51.192;6.788;2023-04-25T05:34:42;12.20;;;11.17;;
908;SDS011;441;51.192;6.788;2023-04-25T05:37:09;11.60;;;10.90;;
908;SDS011;441;51.192;6.788;2023-04-25T05:39:38;11.70;;;11.07;;
908;SDS011;441;51.192;6.788;2023-04-25T05:42:05;11.30;;;10.80;;
908;SDS011;441;51.192;6.788;2023-04-25T05:44:31;11.80;;;11.03;;
908;SDS011;441;51.192;6.788;2023-04-25T05:46:58;11.50;;;10.80;;
908;SDS011;441;51.192;6.788;2023-04-25T05:49:25;11.40;;;10.90;;
908;SDS011;441;51.192;6.788;2023-04-25T05:51:52;12.77;;;11.63;;
908;SDS011;441;51.192;6.788;2023-04-25T05:54:19;12.30;;;11.60;;
908;SDS011;441;51.192;6.788;2023-04-25T05:56:47;11.40;;;10.80;;
908;SDS011;441;51.192;6.788;2023-04-25T05:59:14;11.40;;;11.03;;
908;SDS011;441;51.192;6.788;2023-04-25T06:01:41;12.10;;;11.43;;
908;SDS011;441;51.192;6.788;2023-04-25T06:04:08;11.10;;;10.60;;
908;SDS011;441;51.192;6.788;2023-04-25T06:06:35;11.27;;;10.80;;
908;SDS011;441;51.192;6.788;2023-04-25T06:09:02;12.90;;;11.83;;
908;SDS011;441;51.192;6.788;2023-04-25T06:11:29;10.83;;;10.53;;
908;SDS011;441;51.192;6.788;2023-04-25T06:13:57;10.50;;;10.20;;
908;SDS011;441;51.192;6.788;2023-04-25T06:16:24;10.33;;;10.00;;
908;SDS011;441;51.192;6.788;2023-04-25T06:18:51;11.37;;;10.80;;
908;SDS011;441;51.192;6.788;2023-04-25T06:21:18;10.53;;;10.13;;
908;SDS011;441;51.192;6.788;2023-04-25T06:23:45;9.73;;;9.43;;
908;SDS011;441;51.192;6.788;2023-04-25T06:26:12;11.20;;;10.63;;
908;SDS011;441;51.192;6.788;2023-04-25T06:28:39;11.40;;;10.70;;
908;SDS011;441;51.192;6.788;2023-04-25T06:31:07;10.47;;;9.97;;
908;SDS011;441;51.192;6.788;2023-04-25T06:33:34;10.97;;;10.30;;
908;SDS011;441;51.192;6.788;2023-04-25T06:36:01;9.90;;;9.50;;
908;SDS011;441;51.192;6.788;2023-04-25T06:38:28;10.10;;;9.60;;
908;SDS011;441;51.192;6.788;2023-04-25T06:40:56;11.23;;;10.73;;
908;SDS011;441;51.192;6.788;2023-04-25T06:43:22;11.00;;;10.50;;
908;SDS011;441;51.192;6.788;2023-04-25T06:45:49;11.23;;;10.60;;
908;SDS011;441;51.192;6.788;2023-04-25T06:48:18;11.00;;;10.50;;
908;SDS011;441;51.192;6.788;2023-04-25T06:50:45;10.97;;;10.47;;
908;SDS011;441;51.192;6.788;2023-04-25T06:53:12;10.63;;;10.23;;
908;SDS011;441;51.192;6.788;2023-04-25T06:55:39;10.40;;;10.00;;
908;SDS011;441;51.192;6.788;2023-04-25T06:58:05;10.90;;;10.43;;
908;SDS011;441;51.192;6.788;2023-04-25T07:00:33;11.57;;;11.17;;
908;SDS011;441;51.192;6.788;2023-04-25T07:03:00;10.30;;;10.00;;
908;SDS011;441;51.192;6.788;2023-04-25T07:05:28;10.93;;;10.53;;
908;SDS011;441;51.192;6.788;2023-04-25T07:07:55;10.90;;;10.50;;
908;SDS011;441;51.192;6.788;2023-04-25T07:10:22;12.20;;;11.70;;
908;SDS011;441;51.192;6.788;2023-04-25T07:12:50;11.87;;;11.30;;
908;SDS011;441;51.192;6.788;2023-04-25T07:15:17;12.17;;;11.17;;
908;SDS011;441;51.192;6.788;2023-04-25T07:17:44;10.83;;;10.43;;
908;SDS011;441;51.192;6.788;2023-04-25T07:20:11;12.23;;;11.43;;
908;SDS011;441;51.192;6.788;2023-04-25T07:22:39;10.90;;;10.50;;
908;SDS011;441;51.192;6.788;2023-04-25T07:25:06;12.07;;;11.07;;
908;SDS011;441;51.192;6.788;2023-04-25T07:27:34;10.70;;;10.40;;
908;SDS011;441;51.192;6.788;2023-04-25T07:30:01;10.40;;;9.90;;
908;SDS011;441;51.192;6.788;2023-04-25T07:32:29;10.27;;;9.97;;
908;SDS011;441;51.192;6.788;2023-04-25T07:34:56;10.60;;;10.10;;
908;SDS011;441;51.192;6.788;2023-04-25T07:37:23;10.77;;;10.47;;
908;SDS011;441;51.192;6.788;2023-04-25T07:39:51;10.80;;;10.50;;
908;SDS011;441;51.192;6.788;2023-04-25T07:42:18;10.60;;;10.30;;
908;SDS011;441;51.192;6.788;2023-04-25T07:44:46;10.80;;;10.40;;
908;SDS011;441;51.192;6.788;2023-04-25T07:47:13;10.47;;;10.17;;
908;SDS011;441;51.192;6.788;2023-04-25T07:49:40;10.23;;;10.03;;
908;SDS011;441;51.192;6.788;2023-04-25T07:52:07;10.70;;;10.40;;
908;SDS011;441;51.192;6.788;2023-04-25T07:54:34;10.13;;;9.53;;
908;SDS011;441;51.192;6.788;2023-04-25T07:57:02;10.10;;;9.80;;
908;SDS011;441;51.192;6.788;2023-04-25T07:59:31;10.23;;;9.83;;
908;SDS011;441;51.192;6.788;2023-04-25T08:01:58;9.97;;;9.67;;
908;SDS011;441;51.192;6.788;2023-04-25T08:04:25;10.90;;;10.27;;
908;SDS011;441;51.192;6.788;2023-04-25T08:06:52;9.30;;;9.10;;
908;SDS011;441;51.192;6.788;2023-04-25T08:09:19;9.60;;;9.40;;
908;SDS011;441;51.192;6.788;2023-04-25T08:11:46;9.93;;;9.63;;
908;SDS011;441;51.192;6.788;2023-04-25T08:14:14;9.17;;;8.97;;
908;SDS011;441;51.192;6.788;2023-04-25T08:16:41;9.93;;;9.63;;
908;SDS011;441;51.192;6.788;2023-04-25T08:19:08;9.10;;;8.90;;
908;SDS011;441;51.192;6.788;2023-04-25T08:21:36;9.70;;;9.50;;
908;SDS011;441;51.192;6.788;2023-04-25T08:24:03;10.00;;;9.70;;
908;SDS011;441;51.192;6.788;2023-04-25T08:26:30;9.50;;;9.30;;
908;SDS011;441;51.192;6.788;2023-04-25T08:28:57;10.50;;;10.00;;
908;SDS011;441;51.192;6.788;2023-04-25T08:31:26;10.57;;;10.20;;
908;SDS011;441;51.192;6.788;2023-04-25T08:33:53;10.50;;;10.20;;
908;SDS011;441;51.192;6.788;2023-04-25T08:36:20;10.30;;;9.83;;
908;SDS011;441;51.192;6.788;2023-04-25T08:38:46;10.00;;;9.70;;
908;SDS011;441;51.192;6.788;2023-04-25T08:41:13;10.97;;;10.67;;
908;SDS011;441;51.192;6.788;2023-04-25T08:43:41;9.73;;;9.50;;
908;SDS011;441;51.192;6.788;2023-04-25T08:46:09;10.20;;;9.80;;
908;SDS011;441;51.192;6.788;2023-04-25T08:48:40;10.70;;;10.30;;
908;SDS011;441;51.192;6.788;2023-04-25T08:51:08;10.00;;;9.70;;
908;SDS011;441;51.192;6.788;2023-04-25T08:53:40;10.60;;;10.30;;
908;SDS011;441;51.192;6.788;2023-04-25T08:56:08;10.77;;;10.37;;
908;SDS011;441;51.192;6.788;2023-04-25T08:58:38;9.53;;;9.33;;
908;SDS011;441;51.192;6.788;2023-04-25T09:01:05;10.20;;;9.83;;
908;SDS011;441;51.192;6.788;2023-04-25T09:03:32;9.93;;;9.73;;
908;SDS011;441;51.192;6.788;2023-04-25T09:06:00;10.60;;;10.30;;
908;SDS011;441;51.192;6.788;2023-04-25T09:08:28;10.40;;;10.10;;
908;SDS011;441;51.192;6.788;2023-04-25T09:10:55;9.80;;;9.53;;
908;SDS011;441;51.192;6.788;2023-04-25T09:13:24;10.20;;;9.90;;
908;SDS011;441;51.192;6.788;2023-04-25T09:15:53;10.77;;;10.37;;
908;SDS011;441;51.192;6.788;2023-04-25T09:18:23;10.40;;;10.10;;
908;SDS011;441;51.192;6.788;2023-04-25T09:20:51;10.10;;;9.80;;
908;SDS011;441;51.192;6.788;2023-04-25T09:23:20;10.03;;;9.83;;
908;SDS011;441;51.192;6.788;2023-04-25T09:25:48;10.60;;;10.20;;
908;SDS011;441;51.192;6.788;2023-04-25T09:28:17;9.70;;;9.40;;
908;SDS011;441;51.192;6.788;2023-04-25T09:30:53;9.70;;;9.50;;
908;SDS011;441;51.192;6.788;2023-04-25T09:33:23;11.00;;;10.70;;
908;SDS011;441;51.192;6.788;2023-04-25T09:35:54;10.77;;;10.47;;
908;SDS011;441;51.192;6.788;2023-04-25T09:38:28;10.27;;;10.07;;
908;SDS011;441;51.192;6.788;2023-04-25T09:40:56;11.63;;;11.23;;
908;SDS011;441;51.192;6.788;2023-04-25T09:43:24;10.83;;;10.53;;
908;SDS011;441;51.192;6.788;2023-04-25T09:45:53;10.80;;;10.50;;
908;SDS011;441;51.192;6.788;2023-04-25T09:48:24;11.10;;;10.80;;
908;SDS011;441;51.192;6.788;2023-04-25T09:51:03;10.63;;;10.43;;
908;SDS011;441;51.192;6.788;2023-04-25T09:53:32;10.70;;;10.40;;
908;SDS011;441;51.192;6.788;2023-04-25T09:56:00;10.40;;;10.10;;
908;SDS011;441;51.192;6.788;2023-04-25T09:58:31;10.60;;;10.30;;
908;SDS011;441;51.192;6.788;2023-04-25T10:00:59;10.70;;;10.40;;
908;SDS011;441;51.192;6.788;2023-04-25T10:03:29;11.37;;;11.07;;
908;SDS011;441;51.192;6.788;2023-04-25T10:05:57;10.53;;;10.23;;
908;SDS011;441;51.192;6.788;2023-04-25T10:08:26;10.83;;;10.63;;
908;SDS011;441;51.192;6.788;2023-04-25T10:11:00;11.03;;;10.73;;
908;SDS011;441;51.192;6.788;2023-04-25T10:13:29;11.00;;;10.60;;
908;SDS011;441;51.192;6.788;2023-04-25T10:15:57;10.60;;;10.40;;
908;SDS011;441;51.192;6.788;2023-04-25T10:18:25;11.03;;;10.70;;
908;SDS011;441;51.192;6.788;2023-04-25T10:20:53;10.10;;;9.90;;
908;SDS011;441;51.192;6.788;2023-04-25T10:23:21;10.47;;;10.27;;
908;SDS011;441;51.192;6.788;2023-04-25T10:25:49;10.53;;;10.23;;
908;SDS011;441;51.192;6.788;2023-04-25T10:28:18;10.90;;;10.60;;
908;SDS011;441;51.192;6.788;2023-04-25T10:30:58;10.37;;;10.07;;
908;SDS011;441;51.192;6.788;2023-04-25T10:33:35;10.70;;;10.40;;
908;SDS011;441;51.192;6.788;2023-04-25T10:36:10;11.00;;;10.70;;
908;SDS011;441;51.192;6.788;2023-04-25T10:38:37;10.33;;;10.03;;
908;SDS011;441;51.192;6.788;2023-04-25T10:41:05;10.90;;;10.60;;
908;SDS011;441;51.192;6.788;2023-04-25T10:43:39;10.30;;;10.00;;
908;SDS011;441;51.192;6.788;2023-04-25T10:46:16;9.43;;;9.23;;
908;SDS011;441;51.192;6.788;2023-04-25T10:48:48;9.90;;;9.70;;
908;SDS011;441;51.192;6.788;2023-04-25T10:51:16;9.70;;;9.50;;
908;SDS011;441;51.192;6.788;2023-04-25T10:53:58;9.90;;;9.70;;
908;SDS011;441;51.192;6.788;2023-04-25T10:56:26;10.10;;;9.77;;
908;SDS011;441;51.192;6.788;2023-04-25T10:59:08;10.00;;;9.80;;
908;SDS011;441;51.192;6.788;2023-04-25T11:01:37;10.60;;;10.30;;
908;SDS011;441;51.192;6.788;2023-04-25T11:04:05;9.90;;;9.50;;
908;SDS011;441;51.192;6.788;2023-04-25T11:06:46;9.90;;;9.70;;
908;SDS011;441;51.192;6.788;2023-04-25T11:09:31;10.70;;;10.47;;
908;SDS011;441;51.192;6.788;2023-04-25T11:11:59;10.33;;;10.03;;
908;SDS011;441;51.192;6.788;2023-04-25T11:14:27;10.83;;;10.53;;
908;SDS011;441;51.192;6.788;2023-04-25T11:16:54;10.80;;;10.50;;
908;SDS011;441;51.192;6.788;2023-04-25T11:19:22;11.00;;;10.70;;
908;SDS011;441;51.192;6.788;2023-04-25T11:21:50;10.30;;;10.10;;
908;SDS011;441;51.192;6.788;2023-04-25T11:24:23;10.73;;;10.53;;
908;SDS011;441;51.192;6.788;2023-04-25T11:26:52;10.30;;;10.10;;
908;SDS011;441;51.192;6.788;2023-04-25T11:29:21;10.00;;;9.70;;
908;SDS011;441;51.192;6.788;2023-04-25T11:31:50;10.20;;;10.00;;
908;SDS011;441;51.192;6.788;2023-04-25T11:34:17;9.50;;;9.30;;
908;SDS011;441;51.192;6.788;2023-04-25T11:36:44;9.70;;;9.50;;
908;SDS011;441;51.192;6.788;2023-04-25T11:39:11;10.50;;;10.30;;
908;SDS011;441;51.192;6.788;2023-04-25T11:41:38;10.70;;;10.40;;
908;SDS011;441;51.192;6.788;2023-04-25T11:44:05;10.03;;;9.73;;
908;SDS011;441;51.192;6.788;2023-04-25T11:46:33;9.70;;;9.50;;
908;SDS011;441;51.192;6.788;2023-04-25T11:49:02;10.80;;;10.50;;
908;SDS011;441;51.192;6.788;2023-04-25T11:51:29;10.33;;;10.10;;
908;SDS011;441;51.192;6.788;2023-04-25T11:53:56;10.50;;;10.20;;
908;SDS011;441;51.192;6.788;2023-04-25T11:56:23;11.07;;;10.67;;
908;SDS011;441;51.192;6.788;2023-04-25T11:58:53;10.60;;;10.30;;
908;SDS011;441;51.192;6.788;2023-04-25T12:01:30;10.30;;;10.10;;
908;SDS011;441;51.192;6.788;2023-04-25T12:03:58;10.60;;;10.40;;
908;SDS011;441;51.192;6.788;2023-04-25T12:06:38;9.70;;;9.50;;
908;SDS011;441;51.192;6.788;2023-04-25T12:09:07;10.00;;;9.80;;
908;SDS011;441;51.192;6.788;2023-04-25T12:11:40;10.30;;;10.00;;
908;SDS011;441;51.192;6.788;2023-04-25T12:14:07;9.87;;;9.57;;
908;SDS011;441;51.192;6.788;2023-04-25T12:16:41;10.70;;;10.50;;
908;SDS011;441;51.192;6.788;2023-04-25T12:19:08;10.57;;;10.27;;
908;SDS011;441;51.192;6.788;2023-04-25T12:21:38;9.87;;;9.67;;
908;SDS011;441;51.192;6.788;2023-04-25T12:24:11;10.77;;;10.47;;
908;SDS011;441;51.192;6.788;2023-04-25T12:26:46;9.77;;;9.57;;
908;SDS011;441;51.192;6.788;2023-04-25T12:29:18;10.80;;;10.50;;
908;SDS011;441;51.192;6.788;2023-04-25T12:31:46;11.40;;;10.93;;
908;SDS011;441;51.192;6.788;2023-04-25T12:34:13;10.27;;;10.07;;
908;SDS011;441;51.192;6.788;2023-04-25T12:36:42;10.40;;;10.20;;
908;SDS011;441;51.192;6.788;2023-04-25T12:39:11;10.20;;;9.90;;
908;SDS011;441;51.192;6.788;2023-04-25T12:41:41;10.10;;;9.90;;
908;SDS011;441;51.192;6.788;2023-04-25T12:44:07;10.07;;;9.87;;
908;SDS011;441;51.192;6.788;2023-04-25T12:46:35;9.87;;;9.60;;
908;SDS011;441;51.192;6.788;2023-04-25T12:49:02;10.50;;;10.20;;
908;SDS011;441;51.192;6.788;2023-04-25T12:51:31;11.20;;;10.90;;
908;SDS011;441;51.192;6.788;2023-04-25T12:53:59;11.20;;;10.90;;
908;SDS011;441;51.192;6.788;2023-04-25T12:56:26;10.50;;;10.30;;
908;SDS011;441;51.192;6.788;2023-04-25T12:58:53;10.50;;;10.27;;
908;SDS011;441;51.192;6.788;2023-04-25T13:01:20;10.07;;;9.87;;
908;SDS011;441;51.192;6.788;2023-04-25T13:03:48;10.20;;;9.90;;
908;SDS011;441;51.192;6.788;2023-04-25T13:06:15;10.60;;;10.30;;
908;SDS011;441;51.192;6.788;2023-04-25T13:08:42;10.73;;;10.53;;
908;SDS011;441;51.192;6.788;2023-04-25T13:11:10;10.70;;;10.50;;
908;SDS011;441;51.192;6.788;2023-04-25T13:13:37;10.90;;;10.60;;
908;SDS011;441;51.192;6.788;2023-04-25T13:16:05;10.60;;;10.27;;
908;SDS011;441;51.192;6.788;2023-04-25T13:18:33;10.23;;;10.03;;
908;SDS011;441;51.192;6.788;2023-04-25T13:21:00;10.70;;;10.50;;
908;SDS011;441;51.192;6.788;2023-04-25T13:23:28;10.50;;;10.20;;
908;SDS011;441;51.192;6.788;2023-04-25T13:25:56;10.23;;;10.03;;
908;SDS011;441;51.192;6.788;2023-04-25T13:28:24;10.30;;;10.10;;
908;SDS011;441;51.192;6.788;2023-04-25T13:30:51;9.80;;;9.60;;
908;SDS011;441;51.192;6.788;2023-04-25T13:33:18;10.10;;;9.90;;
908;SDS011;441;51.192;6.788;2023-04-25T13:35:46;10.93;;;10.63;;
908;SDS011;441;51.192;6.788;2023-04-25T13:38:18;10.40;;;10.20;;
908;SDS011;441;51.192;6.788;2023-04-25T13:40:46;10.00;;;9.80;;
908;SDS011;441;51.192;6.788;2023-04-25T13:43:13;10.37;;;10.10;;
908;SDS011;441;51.192;6.788;2023-04-25T13:45:41;9.97;;;9.70;;
908;SDS011;441;51.192;6.788;2023-04-25T13:48:08;9.60;;;9.40;;
908;SDS011;441;51.192;6.788;2023-04-25T13:50:35;10.43;;;10.13;;
908;SDS011;441;51.192;6.788;2023-04-25T13:53:02;10.10;;;9.80;;
908;SDS011;441;51.192;6.788;2023-04-25T13:55:29;9.80;;;9.60;;
908;SDS011;441;51.192;6.788;2023-04-25T13:57:56;10.10;;;9.90;;
908;SDS011;441;51.192;6.788;2023-04-25T14:00:23;10.30;;;10.10;;
908;SDS011;441;51.192;6.788;2023-04-25T14:02:52;10.70;;;10.40;;
908;SDS011;441;51.192;6.788;2023-04-25T14:05:19;9.97;;;9.77;;
908;SDS011;441;51.192;6.788;2023-04-25T14:07:45;10.40;;;10.20;;
908;SDS011;441;51.192;6.788;2023-04-25T14:10:12;9.90;;;9.70;;
908;SDS011;441;51.192;6.788;2023-04-25T14:12:39;10.23;;;10.03;;
908;SDS011;441;51.192;6.788;2023-04-25T14:15:06;9.97;;;9.77;;
908;SDS011;441;51.192;6.788;2023-04-25T14:17:33;10.57;;;10.27;;
908;SDS011;441;51.192;6.788;2023-04-25T14:20:02;10.52;;;10.32;;
908;SDS011;441;51.192;6.788;2023-04-25T14:22:30;10.83;;;10.53;;
908;SDS011;441;51.192;6.788;2023-04-25T14:24:57;10.23;;;10.03;;
908;SDS011;441;51.192;6.788;2023-04-25T14:27:24;8.50;;;8.30;;
908;SDS011;441;51.192;6.788;2023-04-25T14:29:51;11.20;;;10.90;;
908;SDS011;441;51.192;6.788;2023-04-25T14:32:18;10.70;;;10.43;;
908;SDS011;441;51.192;6.788;2023-04-25T14:34:45;10.97;;;10.63;;
908;SDS011;441;51.192;6.788;2023-04-25T14:37:14;10.90;;;10.67;;
908;SDS011;441;51.192;6.788;2023-04-25T14:39:41;11.20;;;10.90;;
908;SDS011;441;51.192;6.788;2023-04-25T14:42:08;10.70;;;10.40;;
908;SDS011;441;51.192;6.788;2023-04-25T14:44:36;11.17;;;10.87;;
908;SDS011;441;51.192;6.788;2023-04-25T14:47:04;10.67;;;10.37;;
908;SDS011;441;51.192;6.788;2023-04-25T14:49:31;9.23;;;8.83;;
908;SDS011;441;51.192;6.788;2023-04-25T14:51:58;11.77;;;11.37;;
908;SDS011;441;51.192;6.788;2023-04-25T14:54:27;10.10;;;9.70;;
908;SDS011;441;51.192;6.788;2023-04-25T14:56:54;11.03;;;10.50;;
908;SDS011;441;51.192;6.788;2023-04-25T14:59:21;10.93;;;10.53;;
908;SDS011;441;51.192;6.788;2023-04-25T15:01:49;10.93;;;10.53;;
908;SDS011;441;51.192;6.788;2023-04-25T15:04:16;10.97;;;10.67;;
908;SDS011;441;51.192;6.788;2023-04-25T15:06:43;10.27;;;10.03;;
908;SDS011;441;51.192;6.788;2023-04-25T15:09:10;10.90;;;10.60;;
908;SDS011;441;51.192;6.788;2023-04-25T15:11:39;10.83;;;10.60;;
908;SDS011;441;51.192;6.788;2023-04-25T15:14:06;9.63;;;9.43;;
908;SDS011;441;51.192;6.788;2023-04-25T15:16:32;11.13;;;10.83;;
908;SDS011;441;51.192;6.788;2023-04-25T15:18:59;11.03;;;10.73;;
908;SDS011;441;51.192;6.788;2023-04-25T15:21:29;10.03;;;9.83;;
908;SDS011;441;51.192;6.788;2023-04-25T15:23:56;9.93;;;9.73;;
908;SDS011;441;51.192;6.788;2023-04-25T15:26:23;10.60;;;10.20;;
908;SDS011;441;51.192;6.788;2023-04-25T15:28:51;9.70;;;9.40;;
908;SDS011;441;51.192;6.788;2023-04-25T15:31:18;10.20;;;9.90;;
908;SDS011;441;51.192;6.788;2023-04-25T15:33:45;10.43;;;10.20;;